createdAt,value
2019-05-13T00:00:14.730Z,101016.91
2019-05-13T00:04:18.970Z,101016.08
2019-05-13T00:08:24.921Z,101015.23
2019-05-13T00:12:29.361Z,101009.98
2019-05-13T00:16:34.126Z,101017.44
2019-05-13T00:20:38.550Z,101013.05
2019-05-13T00:24:44.300Z,101014.77
2019-05-13T00:28:48.765Z,101015.67
2019-05-13T00:32:54.596Z,101009.50
2019-05-13T00:37:08.986Z,101000.29
2019-05-13T00:41:04.932Z,101018.70
2019-05-13T00:45:09.544Z,101017.03
2019-05-13T00:49:13.927Z,101025.33
2019-05-13T00:53:18.170Z,101024.32
2019-05-13T00:57:23.830Z,101024.59
2019-05-13T01:01:28.426Z,101028.54
2019-05-13T01:05:34.017Z,101029.98
2019-05-13T01:09:38.427Z,101028.70
2019-05-13T01:13:43.477Z,101036.16
2019-05-13T01:17:47.855Z,101037.03
2019-05-13T01:21:54.025Z,101030.84
2019-05-13T01:25:58.871Z,101038.34
2019-05-13T01:30:04.159Z,101034.80
2019-05-13T01:34:08.518Z,101046.23
2019-05-13T01:38:13.516Z,101039.66
2019-05-13T01:42:17.941Z,101043.61
2019-05-13T01:46:24.110Z,101036.64
2019-05-13T01:50:28.141Z,101039.23
2019-05-13T01:54:33.913Z,101037.88
2019-05-13T01:58:38.435Z,101033.53
2019-05-13T02:02:44.507Z,101030.90
2019-05-13T02:06:48.712Z,101038.80
2019-05-13T02:10:57.285Z,101040.02
2019-05-13T02:15:04.227Z,101042.09
2019-05-13T02:19:07.574Z,101049.98
2019-05-13T02:23:14.357Z,101054.32
2019-05-13T02:27:17.800Z,101058.56
2019-05-13T02:31:32.079Z,101058.61
2019-05-13T02:35:28.167Z,101052.83
2019-05-13T02:39:33.066Z,101067.77
2019-05-13T02:43:41.374Z,101067.30
2019-05-13T02:47:44.357Z,101063.73
2019-05-13T02:51:48.939Z,101064.61
2019-05-13T02:55:53.639Z,101064.22
2019-05-13T02:59:58.263Z,101057.16
2019-05-13T03:04:03.331Z,101058.08
2019-05-13T03:08:08.253Z,101058.48
2019-05-13T03:12:13.205Z,101059.41
2019-05-13T03:16:51.775Z,101066.45
2019-05-13T03:20:55.134Z,101066.45
2019-05-13T03:25:02.811Z,101075.58
2019-05-13T03:29:05.362Z,101083.02
2019-05-13T03:33:16.705Z,101079.48
2019-05-13T03:37:16.590Z,101088.73
2019-05-13T03:41:22.789Z,101089.59
2019-05-13T03:45:28.982Z,101090.82
2019-05-13T03:49:36.239Z,101101.34
2019-05-13T03:53:43.308Z,101097.84
2019-05-13T03:57:47.221Z,101098.80
2019-05-13T04:01:52.547Z,101099.10
2019-05-13T04:05:57.151Z,101096.47
2019-05-13T04:10:03.428Z,101098.63
2019-05-13T04:14:07.867Z,101095.16
2019-05-13T04:18:12.696Z,101109.72
2019-05-13T04:22:17.097Z,101101.48
2019-05-13T04:26:23.516Z,101103.67
2019-05-13T04:30:27.731Z,101109.86
2019-05-13T04:34:33.748Z,101103.77
2019-05-13T04:38:38.717Z,101114.33
2019-05-13T04:42:42.966Z,101118.67
2019-05-13T04:46:47.344Z,101124.86
2019-05-13T04:50:53.378Z,101131.43
2019-05-13T04:54:57.828Z,101130.47
2019-05-13T04:59:03.026Z,101125.16
2019-05-13T05:03:22.752Z,101120.86
2019-05-13T05:07:43.205Z,101121.31
2019-05-13T05:12:24.737Z,101131.39
2019-05-13T05:16:44.939Z,101139.33
2019-05-13T05:21:01.321Z,101143.67
2019-05-13T05:25:23.186Z,101138.89
2019-05-13T05:30:02.112Z,101141.97
2019-05-13T05:34:16.870Z,101142.88
2019-05-13T05:38:35.827Z,101159.45
2019-05-13T05:42:42.082Z,101168.27
2019-05-13T05:46:51.424Z,101163.02
2019-05-13T05:50:56.915Z,101163.92
2019-05-13T05:55:02.832Z,101172.66
2019-05-13T06:03:17.135Z,101161.78
2019-05-13T06:07:22.028Z,101174.51
2019-05-13T06:11:26.487Z,101166.08
2019-05-13T06:15:31.570Z,101168.84
2019-05-13T06:19:35.920Z,101168.41
2019-05-13T06:23:41.839Z,101171.12
2019-05-13T06:27:46.248Z,101174.68
2019-05-13T06:31:51.965Z,101179.50
2019-05-13T06:35:56.335Z,101173.89
2019-05-13T06:40:01.997Z,101177.84
2019-05-13T06:44:07.057Z,101179.20
2019-05-13T06:48:11.848Z,101182.80
2019-05-13T06:52:16.102Z,101183.78
2019-05-13T06:56:21.754Z,101187.34
2019-05-13T07:00:26.406Z,101198.79
2019-05-13T07:04:32.651Z,101205.91
2019-05-13T07:08:36.612Z,101200.64
2019-05-13T07:12:41.326Z,101191.43
2019-05-13T07:16:45.568Z,101198.49
2019-05-13T07:20:49.840Z,101200.64
2019-05-13T07:24:54.080Z,101189.72
2019-05-13T07:28:58.866Z,101185.42
2019-05-13T07:33:03.612Z,101195.52
2019-05-13T07:37:07.882Z,101195.02
2019-05-13T07:41:12.182Z,101203.37
2019-05-13T07:45:16.444Z,101203.50
2019-05-13T07:49:22.495Z,101197.41
2019-05-13T07:53:26.700Z,101200.18
2019-05-13T07:57:31.941Z,101204.17
2019-05-13T08:01:36.289Z,101211.03
2019-05-13T08:05:41.828Z,101211.03
2019-05-13T08:09:46.288Z,101213.63
2019-05-13T08:13:51.774Z,101207.62
2019-05-13T08:17:56.139Z,101214.33
2019-05-13T08:22:02.173Z,101217.50
2019-05-13T08:26:06.329Z,101221.62
2019-05-13T08:30:11.865Z,101219.08
2019-05-13T08:34:16.306Z,101230.63
2019-05-13T08:38:22.985Z,101224.08
2019-05-13T08:42:27.024Z,101225.48
2019-05-13T08:46:32.248Z,101222.09
2019-05-13T08:50:36.707Z,101223.91
2019-05-13T08:54:41.840Z,101227.42
2019-05-13T08:58:46.398Z,101235.00
2019-05-13T09:02:52.241Z,101235.89
2019-05-13T09:06:56.731Z,101238.60
2019-05-13T09:11:02.523Z,101235.53
2019-05-13T09:15:07.213Z,101235.18
2019-05-13T09:19:15.851Z,101236.10
2019-05-13T09:23:17.450Z,101236.19
2019-05-13T09:27:22.636Z,101225.77
2019-05-13T09:31:27.885Z,101225.77
2019-05-13T09:35:32.310Z,101232.09
2019-05-13T09:39:36.580Z,101232.20
2019-05-13T09:43:41.979Z,101237.64
2019-05-13T09:47:46.561Z,101232.56
2019-05-13T09:51:52.305Z,101240.14
2019-05-13T09:55:56.753Z,101240.14
2019-05-13T10:00:01.947Z,101248.25
2019-05-13T10:04:06.790Z,101250.42
2019-05-13T10:08:12.568Z,101250.42
2019-05-13T10:12:16.928Z,101250.81
2019-05-13T10:16:22.017Z,101250.81
2019-05-13T10:20:43.461Z,101261.14
2019-05-13T10:24:48.021Z,101251.13
2019-05-13T10:28:52.441Z,101251.13
2019-05-13T10:32:59.457Z,101249.40
2019-05-13T10:37:02.890Z,101237.58
2019-05-13T10:41:07.116Z,101240.70
2019-05-13T10:45:12.823Z,101231.45
2019-05-13T10:49:17.319Z,101239.78
2019-05-13T10:53:22.291Z,101229.32
2019-05-13T10:57:26.649Z,101236.50
2019-05-13T11:01:32.745Z,101228.73
2019-05-13T11:05:41.163Z,101218.29
2019-05-13T11:09:42.872Z,101220.99
2019-05-13T11:13:54.395Z,101218.50
2019-05-13T11:17:53.584Z,101220.33
2019-05-13T11:21:57.780Z,101205.35
2019-05-13T11:26:03.028Z,101219.36
2019-05-13T11:30:08.325Z,101209.55
2019-05-13T11:34:12.990Z,101215.33
2019-05-13T11:38:17.521Z,101212.75
2019-05-13T11:42:22.667Z,101217.53
2019-05-13T11:46:27.347Z,101215.83
2019-05-13T11:50:31.654Z,101215.92
2019-05-13T11:54:35.906Z,101213.34
2019-05-13T11:58:43.203Z,101202.83
2019-05-13T12:02:50.835Z,101204.67
2019-05-13T12:06:54.536Z,101203.02
2019-05-13T12:10:58.609Z,101199.17
2019-05-13T12:15:26.381Z,101199.59
2019-05-13T12:19:11.798Z,101193.30
2019-05-13T12:23:15.110Z,101196.73
2019-05-13T12:27:19.346Z,101194.98
2019-05-13T12:31:23.665Z,101192.40
2019-05-13T12:35:27.906Z,101190.30
2019-05-13T12:39:32.240Z,101179.41
2019-05-13T12:43:36.871Z,101172.37
2019-05-13T12:47:43.279Z,101172.46
2019-05-13T12:51:47.281Z,101160.95
2019-05-13T12:55:56.714Z,101167.94
2019-05-13T12:59:57.843Z,101169.27
2019-05-13T13:04:02.405Z,101167.53
2019-05-13T13:08:29.016Z,101175.08
2019-05-13T13:12:12.641Z,101170.70
2019-05-13T13:16:16.905Z,101163.59
2019-05-13T13:20:24.214Z,101166.24
2019-05-13T13:24:27.281Z,101159.63
2019-05-13T13:28:34.174Z,101156.98
2019-05-13T13:32:37.655Z,101163.54
2019-05-13T13:36:45.965Z,101166.54
2019-05-13T13:40:48.370Z,101158.61
2019-05-13T13:44:54.044Z,101153.73
2019-05-13T13:48:58.743Z,101159.02
2019-05-13T13:53:03.012Z,101150.66
2019-05-13T13:57:07.270Z,101158.58
2019-05-13T14:01:18.534Z,101151.09
2019-05-13T14:05:17.932Z,101152.03
2019-05-13T14:09:22.511Z,101152.85
2019-05-13T14:13:26.730Z,101147.10
2019-05-13T14:17:31.295Z,101141.32
2019-05-13T14:21:35.615Z,101135.07
2019-05-13T14:25:42.011Z,101148.26
2019-05-13T14:29:49.375Z,101145.53
2019-05-13T14:33:52.364Z,101151.61
2019-05-13T14:37:57.234Z,101147.66
2019-05-13T14:42:02.156Z,101146.31
2019-05-13T14:46:06.708Z,101148.95
2019-05-13T14:50:12.169Z,101153.35
2019-05-13T14:54:16.660Z,101160.81
2019-05-13T14:58:21.915Z,101159.49
2019-05-13T15:02:26.319Z,101162.92
2019-05-13T15:06:32.714Z,101165.95
2019-05-13T15:10:37.042Z,101172.05
2019-05-13T15:14:42.974Z,101175.55
2019-05-13T15:18:47.446Z,101166.22
2019-05-13T15:22:52.080Z,101173.95
2019-05-13T15:26:56.511Z,101170.02
2019-05-13T15:31:00.948Z,101179.70
2019-05-13T15:35:06.095Z,101163.80
2019-05-13T15:39:11.303Z,101182.76
2019-05-13T15:43:16.253Z,101189.39
2019-05-13T15:47:24.078Z,101183.70
2019-05-13T15:51:26.828Z,101185.91
2019-05-13T15:55:31.112Z,101188.55
2019-05-13T15:59:35.536Z,101179.23
2019-05-13T16:03:41.540Z,101194.58
2019-05-13T16:07:46.016Z,101191.47
2019-05-13T16:11:52.174Z,101188.86
2019-05-13T16:15:56.703Z,101188.70
2019-05-13T16:20:02.090Z,101198.28
2019-05-13T16:24:06.451Z,101206.23
2019-05-13T16:28:10.911Z,101198.63
2019-05-13T16:32:15.541Z,101199.84
2019-05-13T16:36:22.130Z,101201.91
2019-05-13T16:40:25.783Z,101208.91
2019-05-13T16:44:31.841Z,101208.91
2019-05-13T16:48:36.266Z,101203.05
2019-05-13T16:52:41.817Z,101206.58
2019-05-13T16:56:46.202Z,101213.14
2019-05-13T17:00:52.056Z,101208.56
2019-05-13T17:04:56.570Z,101205.81
2019-05-13T17:09:02.077Z,101218.57
2019-05-13T17:13:06.419Z,101229.45
2019-05-13T17:17:11.918Z,101222.23
2019-05-13T17:21:16.356Z,101220.80
2019-05-13T17:25:20.613Z,101220.50
2019-05-13T17:29:24.954Z,101223.86
2019-05-13T17:33:29.256Z,101231.65
2019-05-13T17:37:33.510Z,101243.28
2019-05-13T17:41:37.824Z,101249.82
2019-05-13T17:45:42.090Z,101247.55
2019-05-13T17:49:46.393Z,101241.39
2019-05-13T17:53:52.098Z,101237.40
2019-05-13T17:57:56.376Z,101246.94
2019-05-13T18:02:02.565Z,101253.31
2019-05-13T18:06:06.748Z,101253.31
2019-05-13T18:10:14.269Z,101254.41
2019-05-13T18:14:17.941Z,101253.89
2019-05-13T18:18:22.213Z,101265.70
2019-05-13T18:22:26.444Z,101262.62
2019-05-13T18:26:31.975Z,101268.25
2019-05-13T18:30:36.324Z,101266.58
2019-05-13T18:34:40.620Z,101263.47
2019-05-13T18:38:45.054Z,101270.89
2019-05-13T18:42:51.436Z,101257.50
2019-05-13T18:46:55.324Z,101256.96
2019-05-13T18:51:01.360Z,101267.90
2019-05-13T18:55:06.277Z,101253.80
2019-05-13T18:59:12.538Z,101256.78
2019-05-13T19:03:16.640Z,101259.68
2019-05-13T19:07:21.858Z,101257.83
2019-05-13T19:11:26.365Z,101256.86
2019-05-13T19:15:31.706Z,101247.98
2019-05-13T19:19:36.037Z,101246.14
2019-05-13T19:23:41.927Z,101247.41
2019-05-13T19:27:46.331Z,101251.41
2019-05-13T19:31:51.081Z,101259.31
2019-05-13T19:35:55.430Z,101255.00
2019-05-13T19:40:01.184Z,101247.89
2019-05-13T19:44:05.620Z,101245.12
2019-05-13T19:48:11.890Z,101242.93
2019-05-13T19:52:16.151Z,101238.48
2019-05-13T19:56:21.476Z,101236.20
2019-05-13T20:00:25.955Z,101242.34
2019-05-13T20:04:31.339Z,101238.84
2019-05-13T20:08:35.935Z,101239.19
2019-05-13T20:12:41.994Z,101239.08
2019-05-13T20:16:46.219Z,101238.60
2019-05-13T20:20:51.881Z,101244.80
2019-05-13T20:24:56.278Z,101241.23
2019-05-13T20:29:01.658Z,101239.48
2019-05-13T20:33:06.548Z,101239.92
2019-05-13T20:37:12.372Z,101237.63
2019-05-13T20:41:16.908Z,101246.75
2019-05-13T20:45:22.433Z,101250.70
2019-05-13T20:49:26.974Z,101255.95
2019-05-13T20:53:31.300Z,101251.61
2019-05-13T20:57:35.502Z,101256.01
2019-05-13T21:01:41.734Z,101256.87
2019-05-13T21:05:45.891Z,101258.05
2019-05-13T21:09:51.261Z,101254.15
2019-05-13T21:13:55.920Z,101242.70
2019-05-13T21:18:02.105Z,101233.39
2019-05-13T21:22:06.746Z,101219.16
2019-05-13T21:26:14.921Z,101209.46
2019-05-13T21:30:17.405Z,101218.97
2019-05-13T21:34:21.663Z,101221.20
2019-05-13T21:38:26.036Z,101223.06
2019-05-13T21:42:32.153Z,101222.67
2019-05-13T21:46:36.488Z,101214.04
2019-05-13T21:50:41.420Z,101212.11
2019-05-13T21:54:46.183Z,101209.47
2019-05-13T21:58:52.120Z,101200.70
2019-05-13T22:02:57.355Z,101197.62
2019-05-13T22:07:01.908Z,101196.11
2019-05-13T22:11:06.232Z,101191.20
2019-05-13T22:15:11.624Z,101188.09
2019-05-13T22:19:15.917Z,101195.45
2019-05-13T22:23:20.410Z,101184.00
2019-05-13T22:27:24.937Z,101180.41
2019-05-13T22:31:31.109Z,101180.34
2019-05-13T22:35:35.512Z,101178.94
2019-05-13T22:39:41.911Z,101175.82
2019-05-13T22:43:55.741Z,101171.33
2019-05-13T22:47:52.215Z,101173.44
2019-05-13T22:51:56.486Z,101169.20
2019-05-13T22:56:00.743Z,101165.24
2019-05-13T23:00:05.480Z,101158.95
2019-05-13T23:04:11.426Z,101150.92
2019-05-13T23:08:15.994Z,101149.85
2019-05-13T23:12:21.289Z,101150.23
2019-05-13T23:16:25.579Z,101151.12
2019-05-13T23:20:31.746Z,101150.28
2019-05-13T23:24:35.743Z,101142.73
2019-05-13T23:28:41.581Z,101143.13
2019-05-13T23:32:46.132Z,101135.23
2019-05-13T23:36:51.492Z,101132.17
2019-05-13T23:40:55.952Z,101131.73
2019-05-13T23:45:00.260Z,101122.73
2019-05-13T23:49:04.479Z,101113.97
2019-05-13T23:53:08.846Z,101120.20
2019-05-13T23:57:13.092Z,101112.02
